createdAt,value
2022-12-22T00:00:07.325Z,26.80
2022-12-22T00:02:58.756Z,30.45
2022-12-22T00:05:44.709Z,25.88
2022-12-22T00:08:30.454Z,29.80
2022-12-22T00:11:16.969Z,25.42
2022-12-22T00:14:04.249Z,26.30
2022-12-22T00:16:54.964Z,28.88
2022-12-22T00:19:40.896Z,31.50
2022-12-22T00:22:35.789Z,29.02
2022-12-22T00:25:21.354Z,26.10
2022-12-22T00:28:06.817Z,25.73
2022-12-22T00:30:52.446Z,27.60
2022-12-22T00:33:39.262Z,28.92
2022-12-22T00:36:28.493Z,27.75
2022-12-22T00:39:13.986Z,28.42
2022-12-22T00:41:59.220Z,26.55
2022-12-22T00:44:44.569Z,25.17
2022-12-22T00:47:37.884Z,26.77
2022-12-22T00:50:24.035Z,24.58
2022-12-22T00:53:09.299Z,27.35
2022-12-22T00:55:54.479Z,23.85
2022-12-22T00:58:39.909Z,32.80
2022-12-22T01:01:25.230Z,25.70
2022-12-22T01:04:10.839Z,36.70
2022-12-22T01:06:57.188Z,25.58
2022-12-22T01:09:42.682Z,31.02
2022-12-22T01:12:41.249Z,25.35
2022-12-22T01:15:36.256Z,31.73
2022-12-22T01:18:22.293Z,27.90
2022-12-22T01:21:09.115Z,25.77
2022-12-22T01:23:54.747Z,28.33
2022-12-22T01:26:40.157Z,24.45
2022-12-22T01:29:25.514Z,24.63
2022-12-22T01:32:10.982Z,22.00
2022-12-22T01:34:57.157Z,29.08
2022-12-22T01:37:42.757Z,26.00
2022-12-22T01:40:41.928Z,27.40
2022-12-22T01:43:39.355Z,25.65
2022-12-22T01:46:43.095Z,27.52
2022-12-22T01:49:42.998Z,22.13
2022-12-22T01:52:30.856Z,29.15
2022-12-22T01:55:21.298Z,23.02
2022-12-22T01:58:06.853Z,23.35
2022-12-22T02:00:52.102Z,26.98
2022-12-22T02:03:39.959Z,24.48
2022-12-22T02:06:33.909Z,27.30
2022-12-22T02:09:43.465Z,40.85
2022-12-22T02:12:34.632Z,23.95
2022-12-22T02:15:49.413Z,26.55
2022-12-22T02:18:46.741Z,24.27
2022-12-22T02:21:36.809Z,28.42
2022-12-22T02:24:40.984Z,28.20
2022-12-22T02:27:27.445Z,26.08
2022-12-22T02:30:17.321Z,23.77
2022-12-22T02:33:09.633Z,23.35
2022-12-22T02:36:13.916Z,24.33
2022-12-22T02:39:41.029Z,24.20
2022-12-22T02:42:49.884Z,27.42
2022-12-22T02:45:57.179Z,28.13
2022-12-22T02:48:52.293Z,29.48
2022-12-22T02:51:42.716Z,23.77
2022-12-22T02:54:29.064Z,24.35
2022-12-22T02:57:14.838Z,25.17
2022-12-22T03:00:00.441Z,25.80
2022-12-22T03:02:46.127Z,22.67
2022-12-22T03:05:31.840Z,25.63
2022-12-22T03:08:17.138Z,22.75
2022-12-22T03:11:02.370Z,23.40
2022-12-22T03:13:47.675Z,22.23
2022-12-22T03:16:33.061Z,23.92
2022-12-22T03:19:18.745Z,23.35
2022-12-22T03:22:04.111Z,24.08
2022-12-22T03:24:49.553Z,21.23
2022-12-22T03:27:16.287Z,23.33
2022-12-22T03:29:43.006Z,21.98
2022-12-22T03:32:09.699Z,23.13
2022-12-22T03:34:36.363Z,22.90
2022-12-22T03:37:03.007Z,24.13
2022-12-22T03:39:29.883Z,24.58
2022-12-22T03:42:15.259Z,21.85
2022-12-22T03:45:00.533Z,22.48
2022-12-22T03:47:27.487Z,22.48
2022-12-22T03:49:54.179Z,23.48
2022-12-22T03:52:20.868Z,23.83
2022-12-22T03:54:47.599Z,24.02
2022-12-22T03:57:14.333Z,23.15
2022-12-22T03:59:41.033Z,23.65
2022-12-22T04:02:07.832Z,22.80
2022-12-22T04:04:34.724Z,22.85
2022-12-22T04:07:01.602Z,19.48
2022-12-22T04:09:29.326Z,22.25
2022-12-22T04:12:14.917Z,22.10
2022-12-22T04:14:41.622Z,20.10
2022-12-22T04:17:09.879Z,21.65
2022-12-22T04:19:36.529Z,22.23
2022-12-22T04:22:03.344Z,22.65
2022-12-22T04:24:30.083Z,21.58
2022-12-22T04:26:56.744Z,23.33
2022-12-22T04:29:23.391Z,20.08
2022-12-22T04:31:50.184Z,23.05
2022-12-22T04:34:16.938Z,22.48
2022-12-22T04:36:43.665Z,20.33
2022-12-22T04:39:10.425Z,22.08
2022-12-22T04:41:37.305Z,21.05
2022-12-22T04:44:04.174Z,23.23
2022-12-22T04:46:30.957Z,24.13
2022-12-22T04:49:00.274Z,27.10
2022-12-22T04:51:27.912Z,21.23
2022-12-22T04:53:54.780Z,20.67
2022-12-22T04:56:21.831Z,20.98
2022-12-22T04:58:48.578Z,19.80
2022-12-22T05:01:17.412Z,24.92
2022-12-22T05:03:44.758Z,26.73
2022-12-22T05:06:12.024Z,19.92
2022-12-22T05:08:39.175Z,26.55
2022-12-22T05:11:06.438Z,22.15
2022-12-22T05:13:33.824Z,23.48
2022-12-22T05:16:08.695Z,22.92
2022-12-22T05:18:36.600Z,23.70
2022-12-22T05:21:09.804Z,24.25
2022-12-22T05:23:36.695Z,27.50
2022-12-22T05:26:03.990Z,22.13
2022-12-22T05:28:32.069Z,23.40
2022-12-22T05:31:10.066Z,26.80
2022-12-22T05:33:37.168Z,28.15
2022-12-22T05:36:04.202Z,24.08
2022-12-22T05:38:31.364Z,25.27
2022-12-22T05:41:03.474Z,27.45
2022-12-22T05:43:31.255Z,28.00
2022-12-22T05:46:00.908Z,27.75
2022-12-22T05:48:33.725Z,29.70
2022-12-22T05:51:04.144Z,25.38
2022-12-22T05:53:30.853Z,27.77
2022-12-22T05:55:58.684Z,26.23
2022-12-22T05:58:25.567Z,24.20
2022-12-22T06:00:55.541Z,27.33
2022-12-22T06:03:22.401Z,28.50
2022-12-22T06:05:52.763Z,27.30
2022-12-22T06:08:19.568Z,26.45
2022-12-22T06:10:46.321Z,29.55
2022-12-22T06:13:12.954Z,25.75
2022-12-22T06:15:39.705Z,26.60
2022-12-22T06:18:07.096Z,24.65
2022-12-22T06:20:33.798Z,24.75
2022-12-22T06:23:00.663Z,27.98
2022-12-22T06:25:27.338Z,25.00
2022-12-22T06:27:54.015Z,26.67
2022-12-22T06:30:20.854Z,27.55
2022-12-22T06:32:47.555Z,28.80
2022-12-22T06:35:14.600Z,25.80
2022-12-22T06:37:41.546Z,28.50
2022-12-22T06:40:09.266Z,28.63
2022-12-22T06:42:54.634Z,29.45
2022-12-22T06:45:21.353Z,34.88
2022-12-22T06:47:47.988Z,28.65
2022-12-22T06:50:14.691Z,28.48
2022-12-22T06:52:41.348Z,29.33
2022-12-22T06:55:08.727Z,28.75
2022-12-22T06:57:35.653Z,29.10
2022-12-22T07:00:03.063Z,28.52
2022-12-22T07:02:29.981Z,29.60
2022-12-22T07:04:56.756Z,32.80
2022-12-22T07:07:23.482Z,24.23
2022-12-22T07:09:50.198Z,24.80
2022-12-22T07:12:16.929Z,26.35
2022-12-22T07:14:43.629Z,24.52
2022-12-22T07:17:10.421Z,28.02
2022-12-22T07:19:37.138Z,28.58
2022-12-22T07:22:03.872Z,25.60
2022-12-22T07:24:30.623Z,26.38
2022-12-22T07:26:57.363Z,25.30
2022-12-22T07:29:24.565Z,23.77
2022-12-22T07:31:51.593Z,25.55
2022-12-22T07:34:18.367Z,28.17
2022-12-22T07:36:45.328Z,24.00
2022-12-22T07:39:12.747Z,27.98
2022-12-22T07:41:58.057Z,22.88
2022-12-22T07:44:24.995Z,27.95
2022-12-22T07:46:51.823Z,31.00
2022-12-22T07:49:37.797Z,30.48
2022-12-22T07:52:04.821Z,33.55
2022-12-22T07:54:35.254Z,39.47
2022-12-22T07:57:04.825Z,34.13
2022-12-22T07:59:31.615Z,34.42
2022-12-22T08:01:58.451Z,34.83
2022-12-22T08:04:25.410Z,34.53
2022-12-22T08:06:52.178Z,38.33
2022-12-22T08:09:21.586Z,37.00
2022-12-22T08:11:49.239Z,33.70
2022-12-22T08:14:15.995Z,37.60
2022-12-22T08:16:42.690Z,29.65
2022-12-22T08:19:09.514Z,32.20
2022-12-22T08:21:36.258Z,31.42
2022-12-22T08:24:03.214Z,34.88
2022-12-22T08:26:37.932Z,29.83
2022-12-22T08:29:28.998Z,34.85
2022-12-22T08:31:56.035Z,34.67
2022-12-22T08:34:22.797Z,37.35
2022-12-22T08:36:55.173Z,39.00
2022-12-22T08:39:23.261Z,38.92
2022-12-22T08:41:50.205Z,37.53
2022-12-22T08:44:19.389Z,39.03
2022-12-22T08:46:46.483Z,43.67
2022-12-22T08:49:13.597Z,48.22
2022-12-22T08:51:40.398Z,50.22
2022-12-22T08:54:07.430Z,43.28
2022-12-22T08:56:35.060Z,53.83
2022-12-22T08:59:07.653Z,48.33
2022-12-22T09:04:04.007Z,55.08
2022-12-22T09:06:36.513Z,53.58
2022-12-22T09:09:10.333Z,53.67
2022-12-22T09:11:37.843Z,55.90
2022-12-22T09:14:05.226Z,51.92
2022-12-22T09:16:33.433Z,52.53
2022-12-22T09:19:01.289Z,52.80
2022-12-22T09:21:28.800Z,52.78
2022-12-22T09:23:56.497Z,57.28
2022-12-22T09:26:25.705Z,54.42
2022-12-22T09:28:52.902Z,56.00
2022-12-22T09:31:21.264Z,53.50
2022-12-22T09:33:48.328Z,50.33
2022-12-22T09:36:18.144Z,47.83
2022-12-22T09:38:44.827Z,52.83
2022-12-22T09:41:36.831Z,43.75
2022-12-22T09:44:15.240Z,43.53
2022-12-22T09:46:42.919Z,43.00
2022-12-22T09:49:15.762Z,42.45
2022-12-22T09:51:46.296Z,40.30
2022-12-22T09:54:14.127Z,44.20
2022-12-22T09:56:41.041Z,45.60
2022-12-22T09:59:13.149Z,40.75
2022-12-22T10:01:55.622Z,43.75
2022-12-22T10:04:38.322Z,42.63
2022-12-22T10:07:17.019Z,43.67
2022-12-22T10:09:51.931Z,43.13
2022-12-22T10:12:22.566Z,46.33
2022-12-22T10:14:51.528Z,44.88
2022-12-22T10:17:28.153Z,44.90
2022-12-22T10:20:09.372Z,37.65
2022-12-22T10:22:47.708Z,40.55
2022-12-22T10:25:45.319Z,39.28
2022-12-22T10:28:23.246Z,36.03
2022-12-22T10:30:50.061Z,31.52
2022-12-22T10:33:18.955Z,29.23
2022-12-22T10:35:56.654Z,33.20
2022-12-22T10:38:52.143Z,31.10
2022-12-22T10:41:22.211Z,33.90
2022-12-22T10:43:58.289Z,27.48
2022-12-22T10:46:33.270Z,30.95
2022-12-22T10:52:16.665Z,25.77
2022-12-22T10:54:45.081Z,27.00
2022-12-22T10:57:14.851Z,37.33
2022-12-22T11:00:01.774Z,30.00
2022-12-22T11:02:34.859Z,27.98
2022-12-22T11:05:05.826Z,30.65
2022-12-22T11:07:37.538Z,27.95
2022-12-22T11:10:12.541Z,27.67
2022-12-22T11:13:02.414Z,31.35
2022-12-22T11:15:51.147Z,28.98
2022-12-22T11:18:36.448Z,28.65
2022-12-22T11:21:10.505Z,32.72
2022-12-22T11:24:01.751Z,34.45
2022-12-22T11:27:10.141Z,30.42
2022-12-22T11:30:01.851Z,31.55
2022-12-22T11:32:57.748Z,33.45
2022-12-22T11:35:27.370Z,22.27
2022-12-22T11:38:33.759Z,22.90
2022-12-22T11:41:23.325Z,21.40
2022-12-22T11:44:11.345Z,20.02
2022-12-22T11:46:48.479Z,24.70
2022-12-22T11:50:01.906Z,22.67
2022-12-22T11:53:06.296Z,21.42
2022-12-22T11:55:53.753Z,23.33
2022-12-22T11:58:37.695Z,21.15
2022-12-22T12:01:25.673Z,23.13
2022-12-22T12:04:20.431Z,18.05
2022-12-22T12:07:05.070Z,20.13
2022-12-22T12:09:58.297Z,19.98
2022-12-22T12:12:43.182Z,15.60
2022-12-22T12:15:21.776Z,14.68
2022-12-22T12:18:01.107Z,19.13
2022-12-22T12:21:12.733Z,17.27
2022-12-22T12:23:57.170Z,19.88
2022-12-22T12:26:48.076Z,17.23
2022-12-22T12:29:27.978Z,17.10
2022-12-22T12:32:00.657Z,20.70
2022-12-22T12:34:31.243Z,21.60
2022-12-22T12:37:18.129Z,16.98
2022-12-22T12:39:56.228Z,21.38
2022-12-22T12:42:30.256Z,18.25
2022-12-22T12:44:57.002Z,14.80
2022-12-22T12:47:27.751Z,21.35
2022-12-22T12:50:25.150Z,16.13
2022-12-22T12:52:51.728Z,18.80
2022-12-22T12:55:54.230Z,19.98
2022-12-22T12:58:38.835Z,17.73
2022-12-22T13:01:32.029Z,17.33
2022-12-22T13:04:04.728Z,17.20
2022-12-22T13:06:49.679Z,17.50
2022-12-22T13:12:40.577Z,19.45
2022-12-22T13:15:30.856Z,16.42
2022-12-22T13:17:58.958Z,17.00
2022-12-22T13:20:31.061Z,16.58
2022-12-22T13:23:00.036Z,16.00
2022-12-22T13:25:47.641Z,13.73
2022-12-22T13:28:19.361Z,13.00
2022-12-22T13:30:53.185Z,16.03
2022-12-22T13:33:25.219Z,14.77
2022-12-22T13:35:58.510Z,13.93
2022-12-22T13:38:37.332Z,13.27
2022-12-22T13:41:14.743Z,15.48
2022-12-22T13:43:44.186Z,16.80
2022-12-22T13:46:11.182Z,12.85
2022-12-22T13:48:45.813Z,12.95
2022-12-22T13:51:20.230Z,17.40
2022-12-22T13:54:10.903Z,15.07
2022-12-22T13:56:46.199Z,13.77
2022-12-22T13:59:29.045Z,15.43
2022-12-22T14:04:31.006Z,11.48
2022-12-22T14:06:57.795Z,10.68
2022-12-22T14:09:28.207Z,13.23
2022-12-22T14:12:00.596Z,14.40
2022-12-22T14:14:35.164Z,20.20
2022-12-22T14:17:02.797Z,16.45
2022-12-22T14:19:36.029Z,11.57
2022-12-22T14:22:14.913Z,12.02
2022-12-22T14:24:56.015Z,14.25
2022-12-22T14:27:39.349Z,9.80
2022-12-22T14:30:20.755Z,10.85
2022-12-22T14:32:54.814Z,9.60
2022-12-22T14:35:21.609Z,14.70
2022-12-22T14:37:51.870Z,12.40
2022-12-22T14:40:39.776Z,8.27
2022-12-22T14:43:18.460Z,11.13
2022-12-22T14:45:47.164Z,19.25
2022-12-22T14:48:29.980Z,13.43
2022-12-22T14:53:35.212Z,14.73
2022-12-22T14:56:01.980Z,9.35
2022-12-22T14:58:34.287Z,13.50
2022-12-22T15:01:19.260Z,13.02
2022-12-22T15:03:59.081Z,12.38
2022-12-22T15:06:28.604Z,13.82
2022-12-22T15:09:11.903Z,10.57
2022-12-22T15:11:51.476Z,10.23
2022-12-22T15:14:21.953Z,12.27
2022-12-22T15:16:49.542Z,14.93
2022-12-22T15:19:18.686Z,11.07
2022-12-22T15:21:45.337Z,16.10
2022-12-22T15:24:17.458Z,11.85
2022-12-22T15:26:45.318Z,12.35
2022-12-22T15:29:12.321Z,12.85
2022-12-22T15:31:39.765Z,14.10
2022-12-22T15:34:23.381Z,13.85
2022-12-22T15:36:50.163Z,15.18
2022-12-22T15:39:18.583Z,12.75
2022-12-22T15:41:46.279Z,13.25
2022-12-22T15:44:13.938Z,16.40
2022-12-22T15:46:43.214Z,19.25
2022-12-22T15:49:20.981Z,20.55
2022-12-22T15:51:54.429Z,18.48
2022-12-22T15:54:22.196Z,23.42
2022-12-22T15:56:51.027Z,29.45
2022-12-22T15:59:22.650Z,23.02
2022-12-22T16:01:54.999Z,23.58
2022-12-22T16:04:28.085Z,30.55
2022-12-22T16:06:54.837Z,28.85
2022-12-22T16:09:25.276Z,23.52
2022-12-22T16:11:52.218Z,30.58
2022-12-22T16:14:20.959Z,25.33
2022-12-22T16:16:48.394Z,28.75
2022-12-22T16:19:17.457Z,30.60
2022-12-22T16:21:47.535Z,32.83
2022-12-22T16:24:42.589Z,26.70
2022-12-22T16:27:11.782Z,38.88
2022-12-22T16:29:39.733Z,30.33
2022-12-22T16:32:20.998Z,28.80
2022-12-22T16:34:48.663Z,37.17
2022-12-22T16:37:15.539Z,31.42
2022-12-22T16:39:42.196Z,34.17
2022-12-22T16:44:59.553Z,28.65
2022-12-22T16:47:31.187Z,29.85
2022-12-22T16:49:59.741Z,31.52
2022-12-22T16:52:47.276Z,32.03
2022-12-22T16:55:22.016Z,29.88
2022-12-22T16:57:48.741Z,31.23
2022-12-22T17:00:18.862Z,33.95
2022-12-22T17:03:16.165Z,32.60
2022-12-22T17:05:47.107Z,31.08
2022-12-22T17:08:31.954Z,32.38
2022-12-22T17:11:08.217Z,32.35
2022-12-22T17:13:37.413Z,32.65
2022-12-22T17:16:05.168Z,33.83
2022-12-22T17:18:37.596Z,32.45
2022-12-22T17:21:04.461Z,34.08
2022-12-22T17:23:39.333Z,33.67
2022-12-22T17:26:09.389Z,34.78
2022-12-22T17:28:37.485Z,33.15
2022-12-22T17:31:04.291Z,33.88
2022-12-22T17:33:32.264Z,32.72
2022-12-22T17:36:01.183Z,32.85
2022-12-22T17:38:29.162Z,28.80
2022-12-22T17:40:57.555Z,39.95
2022-12-22T17:43:24.413Z,36.40
2022-12-22T17:45:52.244Z,32.30
2022-12-22T17:48:18.968Z,29.92
2022-12-22T17:50:49.942Z,33.70
2022-12-22T17:53:20.624Z,37.20
2022-12-22T17:58:35.578Z,33.80
2022-12-22T18:01:02.298Z,31.92
2022-12-22T18:03:29.015Z,43.47
2022-12-22T18:05:55.740Z,36.65
2022-12-22T18:08:22.679Z,34.72
2022-12-22T18:10:49.815Z,34.13
2022-12-22T18:13:25.037Z,34.97
2022-12-22T18:15:53.133Z,34.38
2022-12-22T18:18:20.907Z,36.53
2022-12-22T18:21:06.540Z,39.40
2022-12-22T18:23:36.759Z,36.08
2022-12-22T18:26:05.698Z,35.58
2022-12-22T18:28:32.478Z,34.92
2022-12-22T18:30:59.348Z,33.72
2022-12-22T18:33:26.097Z,34.08
2022-12-22T18:35:52.855Z,34.45
2022-12-22T18:38:29.522Z,35.40
2022-12-22T18:40:56.563Z,38.30
2022-12-22T18:43:24.055Z,35.30
2022-12-22T18:45:50.775Z,36.65
2022-12-22T18:48:17.461Z,36.85
2022-12-22T18:50:44.508Z,41.83
2022-12-22T18:53:27.952Z,37.55
2022-12-22T18:55:55.355Z,34.13
2022-12-22T18:58:22.533Z,38.50
2022-12-22T19:00:50.168Z,36.15
2022-12-22T19:03:22.934Z,36.38
2022-12-22T19:05:49.946Z,35.90
2022-12-22T19:08:22.568Z,37.50
2022-12-22T19:13:29.608Z,38.15
2022-12-22T19:15:57.481Z,37.53
2022-12-22T19:18:27.279Z,36.45
2022-12-22T19:20:55.435Z,37.60
2022-12-22T19:23:24.035Z,34.88
2022-12-22T19:25:55.381Z,34.90
2022-12-22T19:28:25.095Z,36.30
2022-12-22T19:30:52.409Z,34.28
2022-12-22T19:33:26.276Z,36.22
2022-12-22T19:35:53.214Z,37.22
2022-12-22T19:38:22.301Z,37.30
2022-12-22T19:40:50.832Z,41.90
2022-12-22T19:43:18.760Z,34.97
2022-12-22T19:45:49.982Z,39.20
2022-12-22T19:48:19.367Z,32.58
2022-12-22T19:50:47.029Z,38.15
2022-12-22T19:53:14.774Z,32.03
2022-12-22T19:55:45.845Z,33.80
2022-12-22T19:58:20.869Z,33.38
2022-12-22T20:00:48.625Z,32.85
2022-12-22T20:03:19.899Z,31.42
2022-12-22T20:05:46.897Z,35.13
2022-12-22T20:08:13.749Z,30.55
2022-12-22T20:10:41.199Z,31.58
2022-12-22T20:13:17.609Z,35.47
2022-12-22T20:15:45.391Z,37.92
2022-12-22T20:18:24.203Z,33.85
2022-12-22T20:20:59.898Z,34.03
2022-12-22T20:23:29.474Z,35.28
2022-12-22T20:26:00.209Z,32.90
2022-12-22T20:28:32.593Z,38.35
2022-12-22T20:31:01.549Z,34.17
2022-12-22T20:33:28.561Z,36.55
2022-12-22T20:35:57.673Z,33.47
2022-12-22T20:38:30.661Z,35.38
2022-12-22T20:40:57.432Z,35.15
2022-12-22T20:43:25.848Z,38.53
2022-12-22T20:45:56.048Z,36.58
2022-12-22T20:48:25.779Z,35.55
2022-12-22T20:50:52.667Z,37.67
2022-12-22T20:53:20.277Z,36.65
2022-12-22T20:55:47.772Z,36.53
2022-12-22T20:58:22.540Z,36.00
2022-12-22T21:00:51.395Z,35.78
2022-12-22T21:03:18.289Z,37.60
2022-12-22T21:05:46.977Z,36.38
2022-12-22T21:08:20.789Z,36.38
2022-12-22T21:10:49.212Z,36.33
2022-12-22T21:13:16.989Z,35.70
2022-12-22T21:15:46.428Z,33.25
2022-12-22T21:18:23.837Z,35.85
2022-12-22T21:20:51.290Z,36.33
2022-12-22T21:23:18.299Z,34.20
2022-12-22T21:25:54.247Z,32.08
2022-12-22T21:28:33.200Z,33.63
2022-12-22T21:31:01.587Z,36.28
2022-12-22T21:33:28.556Z,37.58
2022-12-22T21:35:56.871Z,33.72
2022-12-22T21:38:27.266Z,36.08
2022-12-22T21:40:54.346Z,35.58
2022-12-22T21:43:21.098Z,36.30
2022-12-22T21:45:49.562Z,34.90
2022-12-22T21:48:19.346Z,30.10
2022-12-22T21:50:47.226Z,34.00
2022-12-22T21:53:19.796Z,33.22
2022-12-22T21:55:49.080Z,34.22
2022-12-22T21:58:15.947Z,33.05
2022-12-22T22:00:48.005Z,29.88
2022-12-22T22:03:16.365Z,33.92
2022-12-22T22:05:43.491Z,33.67
2022-12-22T22:08:11.936Z,32.67
2022-12-22T22:10:43.455Z,32.42
2022-12-22T22:13:15.263Z,28.92
2022-12-22T22:15:42.740Z,29.65
2022-12-22T22:18:18.867Z,30.95
2022-12-22T22:20:46.845Z,29.08
2022-12-22T22:23:14.467Z,29.65
2022-12-22T22:25:41.136Z,27.83
2022-12-22T22:28:10.702Z,31.85
2022-12-22T22:30:39.821Z,30.77
2022-12-22T22:33:06.559Z,29.60
2022-12-22T22:35:33.231Z,34.35
2022-12-22T22:37:59.942Z,32.42
2022-12-22T22:40:26.695Z,31.98
2022-12-22T22:42:53.401Z,33.80
2022-12-22T22:45:23.107Z,29.30
2022-12-22T22:47:51.477Z,33.28
2022-12-22T22:50:19.838Z,29.83
2022-12-22T22:52:47.271Z,31.27
2022-12-22T22:55:14.766Z,32.67
2022-12-22T22:57:42.652Z,31.30
2022-12-22T23:00:12.077Z,29.25
2022-12-22T23:02:39.067Z,28.58
2022-12-22T23:05:06.976Z,33.70
2022-12-22T23:07:35.027Z,31.30
2022-12-22T23:10:01.906Z,29.15
2022-12-22T23:12:28.638Z,30.88
2022-12-22T23:14:55.453Z,34.40
2022-12-22T23:17:22.187Z,29.27
2022-12-22T23:19:48.888Z,27.63
2022-12-22T23:22:15.995Z,31.77
2022-12-22T23:24:42.657Z,35.40
2022-12-22T23:27:09.457Z,31.27
2022-12-22T23:29:37.116Z,33.22
2022-12-22T23:32:04.456Z,35.70
2022-12-22T23:34:31.473Z,37.55
2022-12-22T23:36:58.710Z,31.10
2022-12-22T23:39:25.422Z,32.90
2022-12-22T23:41:52.134Z,30.08
2022-12-22T23:44:18.828Z,31.20
2022-12-22T23:46:45.563Z,31.90
2022-12-22T23:49:12.627Z,32.00
2022-12-22T23:51:39.287Z,29.67
2022-12-22T23:54:06.178Z,31.83
2022-12-22T23:56:32.873Z,30.85
2022-12-22T23:58:59.864Z,32.78
